Time;durP1;ratioP1;P1;durP2;ratioP2;P2;SDS_P1;SDS_P2;PMS_P1;PMS_P2;Temp;Humidity;BMP_temperature;BMP_pressure;BME280_temperature;BME280_humidity;BME280_pressure;Samples;Min_cycle;Max_cycle;Signal;HPM_P1;HPM_P2
2022/05/24 00:00:23;;;;;;;3.30;2.65;;;;;;;17.04;100.00;98845.00;6257218;28;20044;-86
2022/05/24 00:03:25;;;;;;;6.95;3.00;;;;;;;16.91;100.00;98853.69;6256036;28;20041;-88
2022/05/24 00:06:30;;;;;;;5.93;3.50;;;;;;;16.92;100.00;98864.97;6255588;28;20045;-88
2022/05/24 00:09:33;;;;;;;2.92;2.47;;;;;;;16.97;100.00;98878.22;6258905;28;20548;-88
2022/05/24 00:12:37;;;;;;;2.03;1.80;;;;;;;16.91;100.00;98913.00;6248470;28;20403;-85
2022/05/24 00:15:40;;;;;;;3.10;2.10;;;;;;;16.44;100.00;98912.94;6250914;28;20052;-84
2022/05/24 00:18:41;;;;;;;3.35;3.05;;;;;;;16.13;100.00;98937.00;6255561;28;20355;-85
2022/05/24 00:21:48;;;;;;;7.03;4.25;;;;;;;15.86;100.00;98946.53;6254563;28;20299;-85
2022/05/24 00:24:50;;;;;;;5.28;4.70;;;;;;;15.54;100.00;98943.53;6237318;28;20041;-85
2022/05/24 00:27:54;;;;;;;7.38;5.95;;;;;;;15.38;100.00;98951.63;6251194;28;20128;-85
2022/05/24 00:30:56;;;;;;;6.85;5.95;;;;;;;15.20;100.00;98952.94;6264681;28;20083;-84
2022/05/24 00:33:58;;;;;;;8.45;6.95;;;;;;;15.06;100.00;98972.09;6257379;28;20072;-84
2022/05/24 00:37:01;;;;;;;10.30;7.70;;;;;;;14.92;100.00;98986.78;6256626;28;20114;-87
2022/05/24 00:40:05;;;;;;;9.85;7.63;;;;;;;14.84;100.00;99003.34;6281102;28;20048;-85
2022/05/24 00:43:36;;;;;;;8.57;6.88;;;;;;;14.74;100.00;99005.47;6245012;28;20520;-85
2022/05/24 00:46:58;;;;;;;8.10;7.03;;;;;;;14.74;100.00;99022.91;6256584;28;20044;-85
2022/05/24 00:50:11;;;;;;;9.55;7.55;;;;;;;14.75;100.00;99030.50;6274293;28;20492;-86
2022/05/24 00:53:39;;;;;;;10.00;8.70;;;;;;;14.85;100.00;99051.06;6270843;28;20451;-86
2022/05/24 00:56:59;;;;;;;12.52;8.80;;;;;;;14.81;100.00;99052.44;6263585;28;20041;-86
2022/05/24 01:00:12;;;;;;;11.23;9.13;;;;;;;14.72;100.00;99051.72;6253686;28;20086;-87
2022/05/24 01:03:15;;;;;;;11.68;9.50;;;;;;;14.73;100.00;99058.56;6260457;28;20487;-86
2022/05/24 01:06:17;;;;;;;9.00;7.50;;;;;;;14.68;100.00;99066.09;6254404;28;20041;-87
2022/05/24 01:09:30;;;;;;;9.80;7.45;;;;;;;14.72;100.00;99067.34;6265667;28;20041;-87
2022/05/24 01:13:20;;;;;;;8.90;7.15;;;;;;;14.68;100.00;99073.09;6264361;28;20052;-87
2022/05/24 01:16:22;;;;;;;10.25;7.60;;;;;;;14.75;100.00;99072.19;6137711;28;20052;-88
2022/05/24 01:19:33;;;;;;;10.82;7.95;;;;;;;14.77;100.00;99080.63;6124191;29;20059;-88
2022/05/24 01:22:41;;;;;;;11.30;8.02;;;;;;;14.74;100.00;99094.03;6132194;28;20596;-88
2022/05/24 01:26:38;;;;;;;9.82;7.90;;;;;;;14.73;100.00;99086.38;6134198;28;20047;-89
2022/05/24 01:29:43;;;;;;;10.45;6.85;;;;;;;14.72;100.00;99096.00;6062241;29;20055;-87
2022/05/24 01:36:15;;;;;;;7.18;5.30;;;;;;;14.73;100.00;99104.63;6064113;29;20049;-89
2022/05/24 01:39:17;;;;;;;8.07;6.32;;;;;;;14.68;100.00;99102.56;6061703;29;20076;-90
2022/05/24 01:42:20;;;;;;;7.90;6.18;;;;;;;14.59;100.00;99112.28;6058702;29;20056;-88
2022/05/24 01:45:36;;;;;;;6.30;5.63;;;;;;;14.62;100.00;99118.94;6049316;29;20052;-88
2022/05/24 01:48:46;;;;;;;5.82;4.63;;;;;;;14.68;100.00;99123.41;6063054;29;20136;-87
2022/05/24 01:51:53;;;;;;;;;;;;;;;14.75;100.00;99128.69;6076784;29;20047;-88
2022/05/24 01:55:03;;;;;;;5.45;4.55;;;;;;;14.72;100.00;99127.25;6110258;29;19934;-89
2022/05/24 01:58:10;;;;;;;6.55;4.63;;;;;;;14.72;100.00;99124.66;6111027;29;20132;-89
2022/05/24 02:01:27;;;;;;;6.45;4.68;;;;;;;14.60;100.00;99124.31;6110393;29;20156;-88
2022/05/24 02:04:32;;;;;;;10.93;5.00;;;;;;;14.58;100.00;99122.88;6127095;28;20061;-87
2022/05/24 02:07:35;;;;;;;6.50;4.68;;;;;;;14.58;100.00;99120.28;6241442;28;20053;-88
2022/05/24 02:10:45;;;;;;;7.57;4.60;;;;;;;14.59;100.00;99116.69;6258159;28;20261;-87
2022/05/24 02:13:48;;;;;;;4.97;3.63;;;;;;;14.57;100.00;99121.28;6253588;28;20060;-87
2022/05/24 02:17:01;;;;;;;9.18;4.05;;;;;;;14.53;100.00;99128.63;6252022;28;20048;-87
2022/05/24 02:20:05;;;;;;;4.43;3.50;;;;;;;14.50;100.00;99125.56;6232121;28;20124;-87
2022/05/24 02:23:09;;;;;;;3.90;3.00;;;;;;;14.42;100.00;99118.66;6252491;28;20072;-86
2022/05/24 02:26:13;;;;;;;6.57;3.15;;;;;;;14.39;100.00;99109.41;6245879;28;20032;-86
2022/05/24 02:29:18;;;;;;;2.92;2.40;;;;;;;14.30;100.00;99107.88;6257563;28;20151;-86
2022/05/24 02:32:20;;;;;;;3.60;2.78;;;;;;;14.29;100.00;99113.28;6252570;28;20044;-86
2022/05/24 02:35:23;;;;;;;4.53;2.95;;;;;;;14.28;100.00;99125.47;6260090;28;20044;-85
2022/05/24 02:38:25;;;;;;;3.30;2.63;;;;;;;14.32;100.00;99118.13;6259133;28;20048;-85
2022/05/24 02:41:33;;;;;;;3.67;2.30;;;;;;;14.20;100.00;99120.34;6237232;28;20147;-85
2022/05/24 02:44:36;;;;;;;3.17;2.38;;;;;;;14.09;100.00;99124.22;6256098;28;20088;-85
2022/05/24 02:47:38;;;;;;;3.00;2.60;;;;;;;13.89;100.00;99123.13;6248118;28;20494;-85
2022/05/24 02:50:40;;;;;;;2.28;2.00;;;;;;;13.80;100.00;99132.78;6248068;28;20048;-85
2022/05/24 02:53:43;;;;;;;3.45;2.40;;;;;;;13.66;100.00;99134.34;6245190;28;20037;-85
2022/05/24 02:56:45;;;;;;;5.10;3.40;;;;;;;13.43;100.00;99146.56;6248329;28;20045;-85
2022/05/24 02:59:47;;;;;;;3.08;2.63;;;;;;;13.37;100.00;99153.28;6255387;28;20033;-86
2022/05/24 03:02:50;;;;;;;3.85;3.00;;;;;;;13.33;100.00;99162.41;6256850;28;20040;-86
2022/05/24 03:05:55;;;;;;;4.15;3.05;;;;;;;13.39;100.00;99151.31;6260313;28;20497;-86
2022/05/24 03:15:40;;;;;;;4.75;3.67;;;;;;;13.46;100.00;99175.63;6249381;28;20402;-86
2022/05/24 03:18:43;;;;;;;5.95;4.32;;;;;;;13.43;100.00;99175.16;6258112;28;20491;-85
2022/05/24 03:21:46;;;;;;;5.70;3.63;;;;;;;13.43;100.00;99170.75;6239821;28;20429;-86
2022/05/24 03:24:49;;;;;;;5.45;3.67;;;;;;;13.52;100.00;99174.94;6255213;28;20041;-86
2022/05/24 03:27:51;;;;;;;4.68;3.58;;;;;;;13.57;100.00;99177.03;6256927;28;20041;-85
2022/05/24 03:30:54;;;;;;;5.05;3.40;;;;;;;13.74;100.00;99182.91;6239767;28;20036;-86
2022/05/24 03:33:57;;;;;;;4.95;3.47;;;;;;;13.90;100.00;99161.16;6256696;28;20048;-86
2022/05/24 03:37:02;;;;;;;6.50;4.00;;;;;;;13.91;100.00;99163.59;6259493;28;20036;-85
2022/05/24 03:40:05;;;;;;;4.43;3.17;;;;;;;14.00;100.00;99175.50;6253465;28;20038;-86
2022/05/24 03:43:12;;;;;;;4.25;3.28;;;;;;;14.08;100.00;99184.22;6252320;28;20140;-86
2022/05/24 03:46:14;;;;;;;4.97;3.75;;;;;;;14.19;100.00;99189.03;6247283;28;20452;-86
2022/05/24 03:49:17;;;;;;;5.30;3.72;;;;;;;14.20;100.00;99191.44;6257107;28;20068;-86
2022/05/24 03:52:19;;;;;;;4.13;3.70;;;;;;;14.19;100.00;99184.63;6247582;28;20583;-86
2022/05/24 03:55:22;;;;;;;5.53;3.42;;;;;;;14.23;100.00;99198.06;6258037;28;20207;-86
2022/05/24 03:58:26;;;;;;;4.28;3.22;;;;;;;14.25;100.00;99201.31;6222424;28;20049;-86
2022/05/24 04:01:28;;;;;;;4.32;3.42;;;;;;;14.24;100.00;99204.91;6248573;28;20073;-86
2022/05/24 04:04:35;;;;;;;8.38;3.83;;;;;;;14.22;100.00;99207.69;6240473;28;20562;-85
2022/05/24 04:07:39;;;;;;;5.20;3.60;;;;;;;14.23;100.00;99211.09;6260719;28;20053;-86
2022/05/24 04:10:41;;;;;;;6.22;4.20;;;;;;;14.27;100.00;99209.75;6257676;28;20041;-86
2022/05/24 04:13:43;;;;;;;6.32;4.43;;;;;;;14.26;100.00;99215.97;6239558;28;20679;-85
2022/05/24 04:16:45;;;;;;;6.65;4.70;;;;;;;14.24;100.00;99212.72;6258385;28;20118;-86
2022/05/24 04:19:48;;;;;;;6.95;4.70;;;;;;;14.29;100.00;99205.19;6240183;28;20195;-86
2022/05/24 04:22:52;;;;;;;8.00;4.93;;;;;;;14.29;100.00;99205.19;6248005;28;20033;-85
2022/05/24 04:25:55;;;;;;;7.85;5.28;;;;;;;14.31;100.00;99213.63;6232963;28;20060;-85
2022/05/24 04:28:57;;;;;;;5.05;4.43;;;;;;;14.31;100.00;99211.03;6258000;28;20052;-86
2022/05/24 04:31:59;;;;;;;8.45;5.22;;;;;;;14.39;100.00;99217.94;6239978;28;20479;-86
2022/05/24 04:35:01;;;;;;;7.65;5.30;;;;;;;14.47;100.00;99214.44;6260742;28;20137;-86
2022/05/24 04:38:04;;;;;;;8.05;4.80;;;;;;;14.57;100.00;99215.03;6255420;28;20045;-86
2022/05/24 04:44:26;;;;;;;7.88;5.45;;;;;;;14.75;100.00;99196.41;6259115;28;20227;-85
2022/05/24 04:47:30;;;;;;;7.13;5.13;;;;;;;14.84;100.00;99201.34;6257108;28;20041;-85
2022/05/24 04:50:34;;;;;;;6.95;5.43;;;;;;;14.94;100.00;99214.09;6236526;28;20037;-86
2022/05/24 04:53:35;;;;;;;8.65;5.85;;;;;;;14.97;100.00;99211.13;6253761;28;20037;-85
2022/05/24 04:56:38;;;;;;;7.28;5.50;;;;;;;15.04;100.00;99209.41;6223791;28;20068;-85
2022/05/24 04:59:40;;;;;;;7.72;5.85;;;;;;;15.11;100.00;99195.66;6249274;28;20124;-86
2022/05/24 05:02:51;;;;;;;8.07;6.77;;;;;;;15.11;100.00;99201.69;6258638;28;20069;-86
2022/05/24 05:05:53;;;;;;;12.13;7.15;;;;;;;15.16;100.00;99206.34;6243817;28;20045;-86
2022/05/24 05:08:55;;;;;;;8.20;7.00;;;;;;;15.22;100.00;99203.78;6243780;28;20110;-86
2022/05/24 05:11:57;;;;;;;9.75;7.28;;;;;;;15.23;100.00;99204.63;6260613;28;20571;-86
2022/05/24 05:14:59;;;;;;;9.57;7.47;;;;;;;15.24;100.00;99214.06;6248879;28;20048;-86
2022/05/24 05:18:04;;;;;;;10.15;7.63;;;;;;;15.20;100.00;99210.97;6239086;28;20049;-85
2022/05/24 05:21:06;;;;;;;10.20;8.60;;;;;;;15.17;100.00;99221.78;6250578;28;20052;-86
2022/05/24 05:24:08;;;;;;;10.73;8.23;;;;;;;15.15;100.00;99221.16;6255033;28;20041;-85
2022/05/24 05:27:11;;;;;;;12.68;8.57;;;;;;;15.06;100.00;99225.69;6239022;28;20041;-85
2022/05/24 05:33:34;;;;;;;11.07;8.57;;;;;;;15.12;100.00;99223.34;6261163;28;20075;-86
2022/05/24 05:36:36;;;;;;;12.55;9.80;;;;;;;15.32;100.00;99220.94;6247477;28;20041;-86
2022/05/24 05:39:38;;;;;;;13.23;9.93;;;;;;;15.61;100.00;99238.31;6259394;28;20090;-86
2022/05/24 05:42:40;;;;;;;14.15;9.90;;;;;;;15.82;100.00;99234.91;6260837;28;20048;-86
2022/05/24 05:45:43;;;;;;;12.68;10.23;;;;;;;15.93;100.00;99231.81;6253696;28;20045;-85
2022/05/24 05:48:46;;;;;;;13.85;10.80;;;;;;;16.02;100.00;99235.91;6246541;28;20029;-86
2022/05/24 05:51:48;;;;;;;13.63;10.90;;;;;;;16.21;100.00;99237.06;6253992;28;20519;-86
2022/05/24 05:54:50;;;;;;;15.75;11.32;;;;;;;16.50;100.00;99245.72;6235925;28;20190;-86
2022/05/24 05:57:52;;;;;;;15.95;12.82;;;;;;;16.81;100.00;99253.16;6241078;28;20159;-86
2022/05/24 06:00:54;;;;;;;16.35;13.13;;;;;;;17.01;100.00;99253.25;6241724;28;20041;-86
2022/05/24 06:03:57;;;;;;;19.63;12.38;;;;;;;17.02;100.00;99260.09;6244913;28;20038;-86
2022/05/24 06:06:59;;;;;;;16.98;11.63;;;;;;;16.97;100.00;99271.13;6231314;28;20409;-86
2022/05/24 06:10:03;;;;;;;17.52;13.18;;;;;;;16.85;100.00;99274.50;6247083;28;20037;-86
2022/05/24 06:13:05;;;;;;;17.10;12.02;;;;;;;16.67;100.00;99269.72;6249129;28;20090;-86
2022/05/24 06:16:08;;;;;;;16.00;12.15;;;;;;;16.48;100.00;99276.44;6261257;28;20049;-86
2022/05/24 06:19:10;;;;;;;16.52;12.32;;;;;;;16.23;100.00;99273.44;6241937;28;20075;-86
2022/05/24 06:22:11;;;;;;;13.25;10.63;;;;;;;16.09;100.00;99270.69;6243404;28;20061;-86
2022/05/24 06:25:13;;;;;;;13.90;11.13;;;;;;;15.90;100.00;99268.75;6251026;28;20053;-86
2022/05/24 06:28:16;;;;;;;14.40;11.48;;;;;;;15.88;100.00;99278.56;6236743;28;20395;-86
2022/05/24 06:31:17;;;;;;;15.75;11.32;;;;;;;15.98;100.00;99281.66;6247605;28;20226;-86
2022/05/24 06:34:19;;;;;;;13.73;11.43;;;;;;;16.05;100.00;99276.47;6249358;28;20534;-87
2022/05/24 06:37:22;;;;;;;13.20;11.10;;;;;;;15.94;100.00;99291.63;6246511;28;20044;-87
2022/05/24 06:40:24;;;;;;;13.27;10.05;;;;;;;15.89;100.00;99282.75;6258410;28;20158;-86
2022/05/24 06:43:26;;;;;;;13.65;9.98;;;;;;;15.97;100.00;99289.66;6238239;28;20049;-87
2022/05/24 06:46:28;;;;;;;11.98;9.88;;;;;;;16.05;100.00;99290.34;6259796;28;20041;-86
2022/05/24 06:49:30;;;;;;;13.38;9.13;;;;;;;16.09;100.00;99294.19;6257396;28;20256;-87
2022/05/24 06:52:33;;;;;;;12.10;10.10;;;;;;;16.10;100.00;99298.44;6232731;28;20037;-86
2022/05/24 06:55:37;;;;;;;13.60;9.98;;;;;;;16.41;100.00;99304.31;6235685;28;20071;-86
2022/05/24 06:58:39;;;;;;;11.98;9.57;;;;;;;16.69;100.00;99305.09;6251240;28;20624;-86
2022/05/24 07:05:05;;;;;;;13.55;10.25;;;;;;;17.10;100.00;99312.22;6243954;28;20076;-86
2022/05/24 07:08:08;;;;;;;11.60;9.52;;;;;;;17.26;100.00;99321.53;6241254;28;20048;-86
2022/05/24 07:11:10;;;;;;;11.05;8.98;;;;;;;17.35;100.00;99322.19;6235063;28;20055;-86
2022/05/24 07:14:12;;;;;;;14.00;9.27;;;;;;;17.31;100.00;99334.84;6240786;28;20052;-86
2022/05/24 07:17:15;;;;;;;12.25;9.10;;;;;;;17.23;100.00;99337.63;6255893;28;20041;-86
2022/05/24 07:20:17;;;;;;;12.63;9.70;;;;;;;17.15;100.00;99335.19;6255976;28;20056;-86
2022/05/24 07:23:21;;;;;;;14.35;9.98;;;;;;;17.11;100.00;99328.72;6253814;28;20402;-85
2022/05/24 07:26:23;;;;;;;11.38;9.02;;;;;;;16.94;100.00;99328.22;6256804;28;20052;-86
2022/05/24 07:29:45;;;;;;;12.60;9.57;;;;;;;16.53;100.00;99334.94;6258845;28;20052;-86
2022/05/24 07:32:47;;;;;;;13.25;10.27;;;;;;;16.16;100.00;99336.03;6259478;28;20045;-86
2022/05/24 07:35:49;;;;;;;14.32;10.52;;;;;;;15.80;100.00;99341.28;6239124;28;20139;-86
2022/05/24 07:38:51;;;;;;;15.98;10.95;;;;;;;15.62;100.00;99337.22;6241019;28;20040;-85
2022/05/24 07:48:43;;;;;;;14.65;11.85;;;;;;;15.44;100.00;99374.13;6247747;28;20227;-85
2022/05/24 07:51:44;;;;;;;14.52;10.93;;;;;;;15.28;100.00;99376.94;6251785;28;20538;-86
2022/05/24 07:54:46;;;;;;;10.15;7.88;;;;;;;15.06;100.00;99378.66;6246219;28;20133;-87
2022/05/24 07:57:49;;;;;;;9.85;7.43;;;;;;;14.67;100.00;99387.47;6258436;28;20071;-88
2022/05/24 08:00:51;;;;;;;12.77;8.20;;;;;;;14.39;100.00;99381.97;6240130;28;20040;-89
2022/05/24 08:03:54;;;;;;;9.48;7.78;;;;;;;14.13;100.00;99393.50;6238965;28;20073;-88
2022/05/24 08:07:00;;;;;;;10.48;8.43;;;;;;;14.03;100.00;99400.72;6248694;28;20053;-88
2022/05/24 08:10:02;;;;;;;11.27;9.05;;;;;;;14.06;100.00;99412.56;6235426;28;20471;-89
2022/05/24 08:13:09;;;;;;;11.43;9.55;;;;;;;14.14;100.00;99418.56;6238564;28;20037;-90
2022/05/24 08:16:12;;;;;;;13.30;9.93;;;;;;;14.22;100.00;99420.31;6241680;28;20083;-90
2022/05/24 08:19:14;;;;;;;12.55;9.82;;;;;;;14.37;100.00;99421.19;6237564;28;20144;-90
2022/05/24 08:22:17;;;;;;;17.25;10.50;;;;;;;14.47;100.00;99428.75;6235366;28;20045;-90
2022/05/24 08:25:21;;;;;;;13.85;10.45;;;;;;;14.54;100.00;99431.53;6230123;28;20495;-90
2022/05/24 08:28:24;;;;;;;13.13;10.40;;;;;;;14.42;100.00;99441.50;6255329;28;20418;-88
2022/05/24 08:31:26;;;;;;;13.27;9.82;;;;;;;14.27;100.00;99446.63;6238722;28;20585;-89
2022/05/24 08:34:28;;;;;;;13.90;9.18;;;;;;;14.24;100.00;99446.97;6244204;28;20436;-90
2022/05/24 08:37:30;;;;;;;8.90;7.30;;;;;;;14.07;100.00;99461.84;6229678;28;20041;-89
2022/05/24 08:40:35;;;;;;;11.00;6.72;;;;;;;13.87;100.00;99453.66;6245340;28;20595;-88
2022/05/24 08:43:56;;;;;;;8.80;5.75;;;;;;;13.70;100.00;99450.28;6257732;28;20041;-89
2022/05/24 08:51:02;;;;;;;4.28;3.88;;;;;;;13.44;100.00;99465.31;6259495;28;20045;-89
2022/05/24 08:54:12;;;;;;;5.25;4.25;;;;;;;13.48;100.00;99472.63;6233604;28;20041;-89
2022/05/24 08:57:21;;;;;;;6.97;4.43;;;;;;;13.35;100.00;99474.94;6275003;28;20045;-89
2022/05/24 09:00:41;;;;;;;5.88;4.38;;;;;;;13.31;100.00;99461.44;6270125;28;20555;-88
2022/05/24 09:03:43;;;;;;;5.03;3.80;;;;;;;13.10;100.00;99471.50;6257423;28;20029;-90
2022/05/24 09:06:51;;;;;;;5.07;3.55;;;;;;;13.08;100.00;99457.88;6262166;28;20080;-89
2022/05/24 09:10:23;;;;;;;4.70;3.65;;;;;;;12.83;100.00;99436.28;6271005;28;20865;-88
2022/05/24 09:13:42;;;;;;;5.05;4.55;;;;;;;12.87;100.00;99453.19;6260192;28;20037;-88
2022/05/24 09:17:00;;;;;;;6.88;4.90;;;;;;;12.85;100.00;99447.34;6254958;28;20045;-88
2022/05/24 09:20:29;;;;;;;6.22;5.30;;;;;;;12.90;100.00;99440.66;6261629;28;20229;-88
2022/05/24 09:23:47;;;;;;;7.60;5.68;;;;;;;13.07;100.00;99462.25;6264154;28;20086;-88
2022/05/24 09:27:10;;;;;;;7.28;5.90;;;;;;;13.19;100.00;99498.28;6270456;28;20340;-88
2022/05/24 09:30:30;;;;;;;7.90;6.32;;;;;;;13.53;100.00;99498.94;6267923;28;20461;-88
2022/05/24 09:33:38;;;;;;;8.48;6.35;;;;;;;13.96;100.00;99496.03;6261444;28;20482;-89
2022/05/24 09:36:51;;;;;;;6.25;5.53;;;;;;;14.42;100.00;99501.38;6247007;28;20190;-90
2022/05/24 09:40:06;;;;;;;8.25;6.25;;;;;;;14.70;100.00;99499.09;6240990;28;20048;-90
2022/05/24 09:43:29;;;;;;;7.47;6.03;;;;;;;15.12;100.00;99513.47;6251131;28;20489;-89
2022/05/24 09:46:31;;;;;;;6.57;5.20;;;;;;;15.57;100.00;99509.13;6257766;28;20049;-89
2022/05/24 09:49:35;;;;;;;7.88;6.00;;;;;;;15.75;100.00;99503.63;6239500;28;20048;-88
2022/05/24 09:52:37;;;;;;;7.63;5.07;;;;;;;15.60;100.00;99507.97;6248595;28;20064;-90
2022/05/24 09:55:59;;;;;;;8.27;5.38;;;;;;;15.49;100.00;99509.22;6273464;28;20450;-89
2022/05/24 09:59:04;;;;;;;6.97;5.68;;;;;;;15.44;100.00;99516.78;6266211;28;20467;-90
2022/05/24 10:02:33;;;;;;;7.05;6.20;;;;;;;15.45;100.00;99513.16;6257705;28;20032;-92
2022/05/24 10:05:35;;;;;;;8.30;6.85;;;;;;;15.84;100.00;99522.59;6266193;28;20339;-92
2022/05/24 10:08:41;;;;;;;8.35;6.32;;;;;;;16.08;100.00;99517.09;6263743;28;20494;-91
2022/05/24 10:12:07;;;;;;;9.77;7.22;;;;;;;16.32;100.00;99515.16;6255145;28;20141;-92
2022/05/24 10:15:17;;;;;;;9.25;7.20;;;;;;;16.28;100.00;99516.53;6264345;28;20407;-91
2022/05/24 10:19:11;;;;;;;8.68;7.78;;;;;;;16.57;100.00;99513.84;6260224;28;20808;-90
2022/05/24 10:22:41;;;;;;;8.68;6.68;;;;;;;16.85;100.00;99518.38;6255549;28;20037;-90
2022/05/24 10:25:55;;;;;;;;;;;;;;;16.83;100.00;99530.81;6266482;28;20218;-90
2022/05/24 10:29:40;;;;;;;10.23;7.22;;;;;;;16.82;100.00;99544.06;6245116;28;19924;-89
2022/05/24 10:40:38;;;;;;;8.00;6.70;;;;;;;16.87;100.00;99560.81;6252125;28;20048;-88
2022/05/24 10:44:11;;;;;;;8.32;5.80;;;;;;;16.73;100.00;99583.34;6255079;28;20045;-85
2022/05/24 10:47:24;;;;;;;6.85;4.70;;;;;;;16.90;100.00;99580.56;6259403;28;20495;-89
2022/05/24 10:50:33;;;;;;;4.78;4.13;;;;;;;17.07;100.00;99583.72;6257328;28;20040;-88
2022/05/24 10:53:50;;;;;;;4.63;4.18;;;;;;;16.92;100.00;99596.88;6259775;28;20146;-87
2022/05/24 10:57:21;;;;;;;6.65;4.03;;;;;;;16.69;100.00;99592.53;6253628;28;20067;-87
2022/05/24 11:00:29;;;;;;;4.78;4.10;;;;;;;16.85;100.00;99591.56;6255554;28;20379;-88
2022/05/24 11:03:39;;;;;;;4.97;4.30;;;;;;;17.12;100.00;99591.84;6253730;28;20048;-87
2022/05/24 11:07:06;;;;;;;4.50;4.10;;;;;;;17.21;100.00;99581.03;6265596;28;20064;-87
2022/05/24 11:10:34;;;;;;;4.13;3.08;;;;;;;17.58;100.00;99594.03;6242903;28;20072;-87
2022/05/24 11:13:44;;;;;;;4.38;3.08;;;;;;;17.82;100.00;99593.63;6257105;28;20384;-88
2022/05/24 11:16:49;;;;;;;5.37;2.90;;;;;;;17.93;100.00;99596.72;6252716;28;20114;-88
2022/05/24 11:19:54;;;;;;;4.70;2.97;;;;;;;17.89;100.00;99603.31;6253803;28;20734;-86
2022/05/24 11:23:04;;;;;;;5.80;2.92;;;;;;;17.73;97.97;99609.63;6227925;28;20033;-86
2022/05/24 11:26:34;;;;;;;6.37;3.60;;;;;;;17.49;100.00;99613.47;6260089;28;20044;-87
2022/05/24 11:29:46;;;;;;;3.33;2.20;;;;;;;17.63;98.27;99620.44;6260683;28;20036;-86
2022/05/24 11:33:07;;;;;;;4.55;2.17;;;;;;;17.88;96.18;99625.28;6257188;28;20605;-86
2022/05/24 11:36:48;;;;;;;3.95;1.73;;;;;;;17.77;94.23;99621.34;6258407;28;20479;-86
2022/05/24 11:39:50;;;;;;;2.38;1.70;;;;;;;17.91;92.79;99638.78;6260864;28;20056;-86
2022/05/24 11:42:52;;;;;;;3.50;1.98;;;;;;;17.96;90.83;99627.75;6259445;28;20049;-87
2022/05/24 11:46:02;;;;;;;4.80;1.95;;;;;;;17.46;95.11;99626.94;6259181;28;20048;-88
2022/05/24 11:49:27;;;;;;;3.75;1.48;;;;;;;17.27;94.39;99631.81;6258572;28;20041;-87
2022/05/24 11:53:07;;;;;;;4.53;2.13;;;;;;;17.34;91.55;99644.94;6132849;28;20572;-87
2022/05/24 11:56:16;;;;;;;3.30;1.50;;;;;;;17.66;92.07;99630.53;6130488;28;20403;-88
2022/05/24 11:59:44;;;;;;;3.15;1.58;;;;;;;17.99;94.52;99630.81;6117779;29;20573;-89
2022/05/24 12:10:21;;;;;;;3.55;1.17;;;;;;;17.68;85.78;99646.03;6139604;29;20079;-89
2022/05/24 12:13:23;;;;;;;1.30;1.20;;;;;;;17.99;84.44;99649.13;6059227;29;20110;-87
2022/05/24 12:17:07;;;;;;;2.47;1.23;;;;;;;18.41;81.37;99643.94;6069605;29;20065;-87
2022/05/24 12:20:38;;;;;;;2.45;1.30;;;;;;;18.92;77.23;99656.69;6065375;29;20048;-88
2022/05/24 12:23:42;;;;;;;2.35;1.42;;;;;;;19.08;79.43;99656.34;6065109;29;20053;-87
2022/05/24 12:27:25;;;;;;;1.50;1.40;;;;;;;18.91;79.98;99662.94;6065728;29;20598;-88
2022/05/24 12:30:33;;;;;;;2.30;1.70;;;;;;;18.17;81.78;99660.94;6104922;29;20060;-88
2022/05/24 12:33:53;;;;;;;2.55;1.60;;;;;;;18.03;82.50;99662.66;6103667;29;20128;-87
2022/05/24 12:36:57;;;;;;;1.70;1.60;;;;;;;17.90;82.75;99657.31;6099065;29;20688;-88
2022/05/24 12:40:19;;;;;;;2.63;1.85;;;;;;;17.89;79.17;99664.38;6113484;29;20179;-88
2022/05/24 12:43:21;;;;;;;4.32;1.83;;;;;;;17.95;80.04;99665.41;6102720;29;20063;-87
2022/05/24 12:46:27;;;;;;;2.67;1.52;;;;;;;17.81;82.90;99675.81;6099465;29;20102;-87
2022/05/24 12:49:32;;;;;;;2.95;1.50;;;;;;;17.67;84.35;99686.31;6153754;28;20414;-87
2022/05/24 12:52:43;;;;;;;4.57;2.08;;;;;;;17.65;84.16;99681.25;6254339;28;20037;-87
2022/05/24 12:55:56;;;;;;;2.38;1.50;;;;;;;17.95;82.89;99675.91;6247639;28;20042;-87
2022/05/24 12:59:09;;;;;;;2.50;1.50;;;;;;;18.10;78.05;99679.22;6246446;28;20351;-87
2022/05/24 13:02:37;;;;;;;1.52;1.25;;;;;;;17.96;74.13;99688.81;6228306;28;20064;-87
2022/05/24 13:05:40;;;;;;;2.55;1.25;;;;;;;17.75;76.08;99678.31;6256723;28;20128;-87
2022/05/24 13:08:43;;;;;;;2.65;1.20;;;;;;;17.53;77.23;99680.13;6246483;28;20073;-88
2022/05/24 13:11:51;;;;;;;2.85;1.40;;;;;;;17.57;77.40;99671.72;6245481;28;20127;-88
2022/05/24 13:14:59;;;;;;;4.00;1.40;;;;;;;17.73;82.10;99668.03;6245880;28;20059;-88
2022/05/24 13:18:07;;;;;;;3.50;1.42;;;;;;;17.81;78.17;99664.50;6262153;28;20380;-87
2022/05/24 13:21:16;;;;;;;2.42;1.45;;;;;;;18.23;75.56;99674.06;6254681;28;20121;-88
2022/05/24 13:24:18;;;;;;;2.38;1.30;;;;;;;18.37;75.43;99684.66;6242260;28;20510;-88
2022/05/24 13:27:20;;;;;;;3.15;1.63;;;;;;;18.66;71.00;99679.16;6252108;28;20056;-90
2022/05/24 13:34:24;;;;;;;1.48;1.35;;;;;;;18.02;77.23;99692.47;6253574;28;20436;-88
2022/05/24 13:37:48;;;;;;;3.40;1.40;;;;;;;18.36;77.51;99690.88;6256664;28;20045;-88
2022/05/24 13:40:53;;;;;;;2.83;1.50;;;;;;;19.16;72.54;99686.84;6241514;28;20119;-88
2022/05/24 13:44:28;;;;;;;3.17;1.77;;;;;;;19.92;74.79;99694.41;6252557;28;20483;-89
2022/05/24 13:47:39;;;;;;;3.05;1.50;;;;;;;20.26;70.08;99689.13;6244840;28;20461;-88
2022/05/24 13:50:42;;;;;;;3.58;1.52;;;;;;;20.19;68.27;99697.03;6254721;28;20369;-88
2022/05/24 13:53:46;;;;;;;3.30;1.45;;;;;;;20.25;67.36;99704.09;6261213;28;20044;-88
2022/05/24 13:56:49;;;;;;;4.00;1.55;;;;;;;20.84;68.38;99697.06;6244968;28;20582;-88
2022/05/24 14:00:00;;;;;;;2.55;1.42;;;;;;;20.93;60.99;99692.41;6252176;28;20041;-89
2022/05/24 14:03:17;;;;;;;4.05;1.50;;;;;;;20.52;65.69;99706.66;6239719;28;20044;-88
2022/05/24 14:06:25;;;;;;;4.72;1.80;;;;;;;20.46;64.84;99702.25;6244282;28;20124;-89
2022/05/24 14:09:30;;;;;;;2.70;1.40;;;;;;;21.25;63.21;99704.56;6264203;28;20056;-88
2022/05/24 14:12:31;;;;;;;1.90;1.80;;;;;;;21.55;60.13;99695.31;6242673;28;20056;-89
2022/05/24 14:15:36;;;;;;;4.80;1.95;;;;;;;22.18;57.96;99700.44;6259917;28;20372;-89
2022/05/24 14:18:39;;;;;;;1.83;1.38;;;;;;;22.66;67.35;99706.88;6249720;28;20044;-88
2022/05/24 14:21:43;;;;;;;3.17;1.50;;;;;;;22.89;56.76;99708.88;6248569;28;20052;-89
2022/05/24 14:24:45;;;;;;;4.10;1.70;;;;;;;22.94;52.83;99711.63;6241428;28;20045;-88
2022/05/24 14:27:47;;;;;;;1.48;1.27;;;;;;;23.28;51.18;99710.22;6244619;28;20045;-88
2022/05/24 14:30:50;;;;;;;2.60;1.60;;;;;;;22.39;50.92;99715.09;6249186;28;20052;-87
2022/05/24 14:33:52;;;;;;;3.03;1.33;;;;;;;21.77;54.85;99716.84;6258772;28;20090;-88
2022/05/24 14:36:56;;;;;;;1.80;1.50;;;;;;;21.64;52.97;99713.28;6246102;28;20070;-89
2022/05/24 14:39:59;;;;;;;1.98;1.25;;;;;;;21.44;56.15;99709.94;6219662;28;20045;-89
2022/05/24 14:43:01;;;;;;;1.75;1.20;;;;;;;21.13;55.70;99714.16;6260440;28;20045;-89
2022/05/24 14:46:03;;;;;;;3.03;1.30;;;;;;;20.84;57.85;99724.22;6247322;28;20072;-88
2022/05/24 14:49:08;;;;;;;2.22;1.25;;;;;;;21.44;58.25;99723.13;6254250;28;20840;-89
2022/05/24 14:52:13;;;;;;;2.20;1.30;;;;;;;21.66;52.23;99729.69;6260342;28;20045;-87
2022/05/24 14:55:24;;;;;;;3.22;1.15;;;;;;;22.15;52.91;99738.59;6241039;28;20088;-88
2022/05/24 14:58:27;;;;;;;1.95;1.23;;;;;;;21.62;53.14;99752.19;6253898;28;20069;-87
2022/05/24 15:01:29;;;;;;;3.08;1.27;;;;;;;20.77;54.04;99759.41;6234608;28;20037;-87
2022/05/24 15:04:32;;;;;;;5.03;1.30;;;;;;;20.19;56.46;99754.84;6258636;28;20418;-88
2022/05/24 15:17:39;;;;;;;2.05;1.00;;;;;;;19.63;66.84;99765.69;6244781;28;20205;-88
2022/05/24 15:20:42;;;;;;;2.17;1.00;;;;;;;20.21;62.16;99764.13;6252393;28;20051;-88
2022/05/24 15:23:50;;;;;;;2.83;1.40;;;;;;;20.50;60.67;99775.25;6228584;28;20372;-88
2022/05/24 15:26:57;;;;;;;2.63;1.00;;;;;;;20.67;56.58;99782.72;6245714;28;20033;-88
2022/05/24 15:29:59;;;;;;;1.90;1.20;;;;;;;20.59;55.61;99787.16;6223128;28;20418;-89
2022/05/24 15:33:04;;;;;;;2.15;1.23;;;;;;;20.69;54.83;99786.75;6247956;28;20041;-89